createdAt,value
2022-08-09T00:00:12.260Z,2.80
2022-08-09T00:01:54.482Z,2.90
2022-08-09T00:04:00.462Z,3.00
2022-08-09T00:04:35.380Z,3.10
2022-08-09T00:06:19.549Z,3.10
2022-08-09T00:07:11.946Z,2.60
2022-08-09T00:08:31.504Z,3.10
2022-08-09T00:09:41.534Z,3.00
2022-08-09T00:10:53.077Z,2.60
2022-08-09T00:12:03.362Z,3.10
2022-08-09T00:13:17.437Z,2.80
2022-08-09T00:14:31.164Z,2.80
2022-08-09T00:15:58.966Z,2.80
2022-08-09T00:17:15.159Z,3.30
2022-08-09T00:18:40.237Z,2.70
2022-08-09T00:19:50.899Z,2.90
2022-08-09T00:20:59.301Z,3.30
2022-08-09T00:22:07.619Z,2.90
2022-08-09T00:23:55.287Z,3.20
2022-08-09T00:24:50.309Z,3.00
2022-08-09T00:25:57.883Z,2.50
2022-08-09T00:27:05.905Z,2.70
2022-08-09T00:28:13.979Z,2.60
2022-08-09T00:29:39.146Z,3.00
2022-08-09T00:30:55.403Z,2.90
2022-08-09T00:32:03.038Z,2.80
2022-08-09T00:33:11.418Z,2.70
2022-08-09T00:34:20.252Z,3.00
2022-08-09T00:35:29.633Z,3.10
2022-08-09T00:36:52.543Z,2.80
2022-08-09T00:38:00.623Z,3.00
2022-08-09T00:40:09.262Z,3.00
2022-08-09T00:40:53.115Z,3.10
2022-08-09T00:44:10.023Z,2.80
2022-08-09T00:44:10.260Z,3.10
2022-08-09T00:45:03.594Z,2.90
2022-08-09T00:46:28.533Z,3.10
2022-08-09T00:47:42.050Z,3.20
2022-08-09T00:48:54.477Z,2.60
2022-08-09T00:50:04.561Z,2.80
2022-08-09T00:51:13.110Z,2.90
2022-08-09T00:52:21.508Z,2.70
2022-08-09T00:53:37.589Z,2.60
2022-08-09T00:54:46.423Z,2.90
2022-08-09T00:56:04.121Z,2.90
2022-08-09T00:57:13.644Z,2.50
2022-08-09T00:58:27.669Z,2.70
2022-08-09T00:59:40.905Z,2.50
2022-08-09T01:00:51.615Z,2.40
2022-08-09T01:01:59.806Z,3.00
2022-08-09T01:03:30.947Z,2.90
2022-08-09T01:05:03.653Z,2.60
2022-08-09T01:06:35.404Z,3.00
2022-08-09T01:08:13.820Z,2.60
2022-08-09T01:10:00.297Z,2.70
2022-08-09T01:11:23.439Z,2.40
2022-08-09T01:12:41.178Z,3.00
2022-08-09T01:14:18.900Z,2.90
2022-08-09T01:15:27.320Z,2.70
2022-08-09T01:16:39.018Z,2.80
2022-08-09T01:17:59.242Z,2.50
2022-08-09T01:19:42.458Z,2.80
2022-08-09T01:21:01.810Z,2.80
2022-08-09T01:22:19.918Z,2.60
2022-08-09T01:24:05.279Z,2.90
2022-08-09T01:25:20.081Z,2.60
2022-08-09T01:26:53.021Z,2.90
2022-08-09T01:28:00.994Z,2.20
2022-08-09T01:29:08.300Z,2.60
2022-08-09T01:30:33.739Z,2.80
2022-08-09T01:32:31.067Z,2.60
2022-08-09T01:33:13.359Z,2.90
2022-08-09T01:34:21.536Z,2.60
2022-08-09T01:35:53.219Z,2.70
2022-08-09T01:37:01.708Z,2.50
2022-08-09T01:38:15.433Z,2.50
2022-08-09T01:39:23.572Z,2.20
2022-08-09T01:40:30.766Z,2.60
2022-08-09T01:41:38.879Z,2.70
2022-08-09T01:43:03.080Z,2.60
2022-08-09T01:44:11.360Z,2.70
2022-08-09T01:45:22.053Z,2.70
2022-08-09T01:46:31.746Z,2.50
2022-08-09T01:47:44.491Z,2.40
2022-08-09T01:48:52.471Z,2.60
2022-08-09T01:50:00.068Z,2.70
2022-08-09T01:51:10.071Z,2.40
2022-08-09T01:52:18.040Z,2.50
2022-08-09T01:53:28.888Z,2.60
2022-08-09T01:54:52.606Z,2.80
2022-08-09T01:56:00.454Z,2.80
2022-08-09T01:57:15.990Z,2.50
2022-08-09T01:58:24.308Z,2.60
2022-08-09T01:59:32.465Z,2.50
2022-08-09T02:00:40.580Z,2.10
2022-08-09T02:01:59.064Z,2.30
2022-08-09T02:03:11.328Z,2.40
2022-08-09T02:04:22.009Z,2.50
2022-08-09T02:05:38.246Z,2.40
2022-08-09T02:07:17.884Z,2.60
2022-08-09T02:08:40.229Z,2.40
2022-08-09T02:10:03.778Z,2.50
2022-08-09T02:11:16.630Z,2.10
2022-08-09T02:12:25.389Z,2.40
2022-08-09T02:13:40.266Z,2.40
2022-08-09T02:14:51.775Z,2.20
2022-08-09T02:15:58.850Z,2.50
2022-08-09T02:17:29.366Z,2.80
2022-08-09T02:18:37.767Z,2.80
2022-08-09T02:19:50.631Z,2.60
2022-08-09T02:21:04.719Z,2.50
2022-08-09T02:22:35.045Z,2.50
2022-08-09T02:23:52.313Z,2.30
2022-08-09T02:25:04.173Z,2.80
2022-08-09T02:26:26.826Z,2.70
2022-08-09T02:27:57.911Z,2.60
2022-08-09T02:29:19.514Z,2.50
2022-08-09T02:30:30.366Z,2.10
2022-08-09T02:31:40.877Z,2.40
2022-08-09T02:32:49.434Z,2.50
2022-08-09T02:34:12.932Z,2.40
2022-08-09T02:36:02.615Z,2.60
2022-08-09T02:36:59.006Z,2.20
2022-08-09T02:38:07.337Z,2.20
2022-08-09T02:39:19.874Z,2.40
2022-08-09T02:40:41.612Z,2.10
2022-08-09T02:41:55.429Z,2.10
2022-08-09T02:43:05.775Z,2.20
2022-08-09T02:44:29.532Z,2.10
2022-08-09T02:45:39.456Z,2.20
2022-08-09T02:46:52.159Z,2.50
2022-08-09T02:48:05.155Z,2.30
2022-08-09T02:49:38.160Z,2.70
2022-08-09T02:50:54.277Z,2.10
2022-08-09T02:52:05.507Z,2.70
2022-08-09T02:53:29.634Z,2.60
2022-08-09T02:54:37.045Z,2.20
2022-08-09T02:56:02.104Z,2.50
2022-08-09T02:57:14.103Z,2.80
2022-08-09T02:58:37.255Z,2.50
2022-08-09T03:00:11.452Z,2.00
2022-08-09T03:01:15.045Z,2.30
2022-08-09T03:02:30.975Z,2.60
2022-08-09T03:04:12.592Z,2.20
2022-08-09T03:05:10.865Z,2.40
2022-08-09T03:06:27.857Z,2.30
2022-08-09T03:07:37.783Z,2.10
2022-08-09T03:08:49.231Z,2.20
2022-08-09T03:10:00.463Z,2.30
2022-08-09T03:11:10.361Z,2.20
2022-08-09T03:12:19.017Z,2.20
2022-08-09T03:13:27.526Z,2.20
2022-08-09T03:14:52.926Z,2.10
2022-08-09T03:16:05.978Z,2.30
2022-08-09T03:17:16.565Z,1.90
2022-08-09T03:18:32.613Z,2.30
2022-08-09T03:19:57.887Z,2.20
2022-08-09T03:21:08.190Z,2.60
2022-08-09T03:22:24.994Z,2.50
2022-08-09T03:23:39.340Z,3.50
2022-08-09T03:24:52.659Z,2.30
2022-08-09T03:26:21.518Z,2.70
2022-08-09T03:27:45.080Z,2.30
2022-08-09T03:28:57.104Z,2.20
2022-08-09T03:30:04.777Z,2.70
2022-08-09T03:31:21.379Z,2.30
2022-08-09T03:32:32.404Z,2.60
2022-08-09T03:33:53.260Z,2.70
2022-08-09T03:35:03.180Z,2.90
2022-08-09T03:36:27.599Z,2.70
2022-08-09T03:37:55.289Z,2.60
2022-08-09T03:39:05.283Z,2.50
2022-08-09T03:40:14.858Z,2.60
2022-08-09T03:41:30.226Z,2.80
2022-08-09T03:42:54.879Z,2.50
2022-08-09T03:44:08.911Z,2.20
2022-08-09T03:45:17.117Z,3.10
2022-08-09T03:46:46.484Z,2.30
2022-08-09T03:47:54.320Z,2.10
2022-08-09T03:49:03.958Z,2.30
2022-08-09T03:50:18.949Z,2.50
2022-08-09T03:51:55.980Z,2.70
2022-08-09T03:53:05.432Z,2.30
2022-08-09T03:54:13.878Z,2.70
2022-08-09T03:55:22.387Z,2.20
2022-08-09T03:56:31.158Z,2.70
2022-08-09T03:57:44.503Z,2.30
2022-08-09T03:59:02.216Z,2.50
2022-08-09T04:00:17.025Z,2.80
2022-08-09T04:01:25.229Z,2.40
2022-08-09T04:02:44.995Z,2.40
2022-08-09T04:04:01.251Z,2.40
2022-08-09T04:05:26.787Z,2.50
2022-08-09T04:06:38.449Z,2.60
2022-08-09T04:07:56.871Z,2.60
2022-08-09T04:09:41.465Z,2.60
2022-08-09T04:10:40.529Z,2.70
2022-08-09T04:12:02.627Z,2.40
2022-08-09T04:13:12.625Z,2.70
2022-08-09T04:14:53.157Z,2.30
2022-08-09T04:16:19.843Z,2.60
2022-08-09T04:17:21.393Z,2.60
2022-08-09T04:18:28.549Z,2.90
2022-08-09T04:19:50.774Z,3.30
2022-08-09T04:20:59.437Z,2.70
2022-08-09T04:22:07.602Z,2.90
2022-08-09T04:23:24.760Z,2.30
2022-08-09T04:24:33.377Z,2.70
2022-08-09T04:25:40.793Z,3.00
2022-08-09T04:26:50.057Z,2.90
2022-08-09T04:28:02.421Z,2.90
2022-08-09T04:29:15.723Z,2.90
2022-08-09T04:30:28.874Z,2.40
2022-08-09T04:31:37.685Z,2.90
2022-08-09T04:32:56.537Z,2.80
2022-08-09T04:34:04.520Z,3.00
2022-08-09T04:35:15.358Z,2.40
2022-08-09T04:36:25.646Z,2.60
2022-08-09T04:37:42.152Z,2.60
2022-08-09T04:38:53.536Z,2.50
2022-08-09T04:40:00.736Z,3.00
2022-08-09T04:41:11.949Z,2.50
2022-08-09T04:42:20.075Z,2.90
2022-08-09T04:43:30.497Z,2.90
2022-08-09T04:44:49.404Z,2.90
2022-08-09T04:45:57.206Z,2.40
2022-08-09T04:47:09.155Z,2.60
2022-08-09T04:48:16.349Z,2.30
2022-08-09T04:49:40.103Z,2.60
2022-08-09T04:50:51.090Z,2.80
2022-08-09T04:51:58.122Z,2.20
2022-08-09T04:53:13.593Z,2.20
2022-08-09T04:54:21.868Z,2.40
2022-08-09T04:55:37.880Z,2.30
2022-08-09T04:56:57.586Z,2.30
2022-08-09T04:58:09.115Z,2.70
2022-08-09T04:59:17.308Z,2.50
2022-08-09T05:00:31.812Z,2.40
2022-08-09T05:01:43.760Z,2.30
2022-08-09T05:02:52.736Z,2.60
2022-08-09T05:04:00.462Z,2.50
2022-08-09T05:05:10.793Z,2.50
2022-08-09T05:06:25.803Z,2.30
2022-08-09T05:07:36.872Z,2.80
2022-08-09T05:08:47.827Z,2.10
2022-08-09T05:09:56.195Z,2.30
2022-08-09T05:11:06.846Z,2.20
2022-08-09T05:12:16.870Z,2.70
2022-08-09T05:13:25.991Z,2.30
2022-08-09T05:14:35.445Z,2.30
2022-08-09T05:15:47.953Z,2.30
2022-08-09T05:17:01.017Z,2.50
2022-08-09T05:18:42.520Z,2.10
2022-08-09T05:19:44.894Z,2.00
2022-08-09T05:20:54.916Z,2.30
2022-08-09T05:22:02.673Z,2.40
2022-08-09T05:23:53.573Z,2.40
2022-08-09T05:24:39.562Z,2.40
2022-08-09T05:25:50.755Z,2.60
2022-08-09T05:26:59.425Z,2.20
2022-08-09T05:28:07.736Z,2.40
2022-08-09T05:29:24.115Z,2.70
2022-08-09T05:30:32.943Z,2.80
2022-08-09T05:31:47.452Z,2.40
2022-08-09T05:33:01.955Z,2.60
2022-08-09T05:34:16.626Z,2.40
2022-08-09T05:35:25.940Z,2.50
2022-08-09T05:36:37.291Z,2.20
2022-08-09T05:37:51.172Z,2.10
2022-08-09T05:38:59.070Z,2.40
2022-08-09T05:40:09.183Z,2.70
2022-08-09T05:41:18.953Z,2.40
2022-08-09T05:42:27.965Z,2.70
2022-08-09T05:43:37.585Z,2.20
2022-08-09T05:44:50.456Z,2.70
2022-08-09T05:46:02.394Z,2.20
2022-08-09T05:47:14.409Z,2.20
2022-08-09T05:48:27.692Z,2.40
2022-08-09T05:50:25.887Z,2.30
2022-08-09T05:51:30.260Z,2.30
2022-08-09T05:52:36.484Z,2.30
2022-08-09T05:53:56.560Z,2.50
2022-08-09T05:55:07.273Z,2.50
2022-08-09T05:56:16.364Z,2.20
2022-08-09T05:57:25.167Z,2.50
2022-08-09T05:58:56.172Z,2.00
2022-08-09T06:00:08.953Z,2.20
2022-08-09T06:01:19.287Z,2.40
2022-08-09T06:02:26.758Z,2.70
2022-08-09T06:03:43.914Z,2.80
2022-08-09T06:04:52.032Z,2.60
2022-08-09T06:06:05.945Z,2.50
2022-08-09T06:07:21.368Z,2.50
2022-08-09T06:08:29.393Z,2.50
2022-08-09T06:09:54.521Z,2.30
2022-08-09T06:11:17.307Z,2.80
2022-08-09T06:12:26.405Z,2.90
2022-08-09T06:13:34.290Z,2.80
2022-08-09T06:14:41.606Z,2.70
2022-08-09T06:15:51.321Z,2.20
2022-08-09T06:16:59.680Z,2.50
2022-08-09T06:18:16.776Z,2.90
2022-08-09T06:19:24.409Z,2.60
2022-08-09T06:20:36.423Z,2.50
2022-08-09T06:21:51.394Z,2.80
2022-08-09T06:23:07.446Z,2.60
2022-08-09T06:24:21.353Z,2.50
2022-08-09T06:25:30.465Z,2.60
2022-08-09T06:26:45.292Z,2.40
2022-08-09T06:27:53.708Z,2.20
2022-08-09T06:29:04.742Z,2.00
2022-08-09T06:30:14.137Z,2.30
2022-08-09T06:31:31.566Z,2.20
2022-08-09T06:32:59.897Z,2.20
2022-08-09T06:34:18.513Z,2.10
2022-08-09T06:35:55.732Z,2.30
2022-08-09T06:36:59.456Z,2.30
2022-08-09T06:38:08.753Z,2.40
2022-08-09T06:39:16.496Z,2.10
2022-08-09T06:40:25.494Z,2.10
2022-08-09T06:41:57.493Z,2.10
2022-08-09T06:43:03.773Z,2.30
2022-08-09T06:44:18.229Z,2.20
2022-08-09T06:46:06.168Z,2.60
2022-08-09T06:46:57.227Z,2.60
2022-08-09T06:48:05.215Z,2.30
2022-08-09T06:49:16.122Z,2.50
2022-08-09T06:50:31.875Z,2.30
2022-08-09T06:51:40.394Z,2.70
2022-08-09T06:52:49.526Z,2.50
2022-08-09T06:54:00.965Z,2.50
2022-08-09T06:55:12.730Z,2.50
2022-08-09T06:56:21.044Z,2.30
2022-08-09T06:58:01.818Z,2.60
2022-08-09T07:00:50.384Z,2.60
2022-08-09T07:00:54.407Z,2.20
2022-08-09T07:02:05.808Z,2.70
2022-08-09T07:03:14.090Z,2.10
2022-08-09T07:04:21.981Z,2.30
2022-08-09T07:05:58.256Z,2.50
2022-08-09T07:07:04.728Z,2.10
2022-08-09T07:08:12.999Z,2.20
2022-08-09T07:09:57.141Z,3.00
2022-08-09T07:10:50.157Z,2.40
2022-08-09T07:11:58.652Z,2.50
2022-08-09T07:13:27.247Z,2.60
2022-08-09T07:14:38.895Z,2.40
2022-08-09T07:16:36.054Z,2.60
2022-08-09T07:17:18.019Z,2.20
2022-08-09T07:18:26.101Z,2.60
2022-08-09T07:19:33.880Z,2.50
2022-08-09T07:20:43.516Z,2.40
2022-08-09T07:21:57.819Z,2.20
2022-08-09T07:23:18.170Z,2.30
2022-08-09T07:24:40.193Z,2.50
2022-08-09T07:26:02.557Z,2.50
2022-08-09T07:27:26.383Z,3.00
2022-08-09T07:29:09.047Z,2.20
2022-08-09T07:30:09.983Z,2.40
2022-08-09T07:31:18.002Z,2.70
2022-08-09T07:32:33.375Z,2.70
2022-08-09T07:33:52.821Z,3.00
2022-08-09T07:35:10.613Z,2.70
2022-08-09T07:36:22.121Z,2.20
2022-08-09T07:37:30.480Z,2.70
2022-08-09T07:38:58.380Z,2.80
2022-08-09T07:40:09.508Z,3.00
2022-08-09T07:41:21.593Z,2.40
2022-08-09T07:42:32.939Z,2.40
2022-08-09T07:43:41.421Z,2.50
2022-08-09T07:45:02.568Z,2.70
2022-08-09T07:46:27.739Z,2.80
2022-08-09T07:47:49.309Z,2.70
2022-08-09T07:49:03.893Z,2.80
2022-08-09T07:50:13.317Z,3.00
2022-08-09T07:52:06.169Z,3.00
2022-08-09T07:52:57.513Z,2.80
2022-08-09T07:54:09.052Z,2.60
2022-08-09T07:55:17.331Z,2.60
2022-08-09T07:56:30.977Z,2.80
2022-08-09T07:57:46.957Z,2.40
2022-08-09T07:58:57.202Z,2.60
2022-08-09T08:00:11.045Z,2.70
2022-08-09T08:01:33.980Z,3.20
2022-08-09T08:02:43.474Z,2.50
2022-08-09T08:03:56.613Z,2.80
2022-08-09T08:05:17.675Z,2.70
2022-08-09T08:06:32.180Z,2.60
2022-08-09T08:08:44.047Z,2.10
2022-08-09T08:09:18.821Z,2.60
2022-08-09T08:10:37.695Z,2.80
2022-08-09T08:12:09.953Z,2.60
2022-08-09T08:13:12.881Z,2.50
2022-08-09T08:14:24.019Z,2.50
2022-08-09T08:15:35.506Z,2.30
2022-08-09T08:17:00.418Z,2.60
2022-08-09T08:18:16.258Z,2.80
2022-08-09T08:19:30.659Z,2.40
2022-08-09T08:20:38.795Z,2.80
2022-08-09T08:21:52.704Z,2.70
2022-08-09T08:23:01.483Z,2.80
2022-08-09T08:24:11.979Z,2.20
2022-08-09T08:25:23.782Z,2.30
2022-08-09T08:26:55.550Z,2.50
2022-08-09T08:28:04.058Z,2.30
2022-08-09T08:29:15.585Z,2.80
2022-08-09T08:30:28.083Z,2.60
2022-08-09T08:31:56.529Z,2.60
2022-08-09T08:33:04.473Z,2.10
2022-08-09T08:34:12.336Z,2.50
2022-08-09T08:35:22.520Z,2.30
2022-08-09T08:36:30.700Z,2.00
2022-08-09T08:37:42.008Z,2.60
2022-08-09T08:39:06.157Z,2.40
2022-08-09T08:40:19.075Z,2.20
2022-08-09T08:41:41.738Z,2.40
2022-08-09T08:42:54.556Z,3.00
2022-08-09T08:44:06.705Z,2.60
2022-08-09T08:45:15.517Z,2.80
2022-08-09T08:46:33.355Z,2.50
2022-08-09T08:47:44.745Z,2.90
2022-08-09T08:48:53.588Z,2.50
2022-08-09T08:50:02.650Z,2.30
2022-08-09T08:51:10.156Z,2.50
2022-08-09T08:54:03.665Z,2.60
2022-08-09T08:55:13.597Z,2.60
2022-08-09T08:56:28.417Z,2.70
2022-08-09T08:57:39.407Z,2.50
2022-08-09T08:58:48.726Z,2.40
2022-08-09T08:59:58.006Z,2.20
2022-08-09T09:01:09.101Z,3.50
2022-08-09T09:02:31.274Z,2.40
2022-08-09T09:03:39.146Z,2.60
2022-08-09T09:04:52.676Z,2.60
2022-08-09T09:06:04.850Z,2.60
2022-08-09T09:07:13.435Z,2.40
2022-08-09T09:08:30.065Z,2.70
2022-08-09T09:09:58.745Z,2.70
2022-08-09T09:11:06.982Z,2.60
2022-08-09T09:12:16.639Z,2.50
2022-08-09T09:13:25.232Z,2.70
2022-08-09T09:14:52.175Z,2.90
2022-08-09T09:15:59.266Z,2.30
2022-08-09T09:17:06.405Z,2.60
2022-08-09T09:18:20.530Z,2.40
2022-08-09T09:19:41.093Z,2.20
2022-08-09T09:20:49.355Z,2.70
2022-08-09T09:22:11.315Z,2.80
2022-08-09T09:23:19.459Z,2.40
2022-08-09T09:24:50.033Z,2.90
2022-08-09T09:26:04.631Z,2.40
2022-08-09T09:28:03.126Z,2.20
2022-08-09T09:29:04.598Z,2.70
2022-08-09T09:30:38.222Z,2.50
2022-08-09T09:32:03.523Z,2.80
2022-08-09T09:33:15.423Z,2.60
2022-08-09T09:34:23.133Z,2.70
2022-08-09T09:35:33.240Z,2.40
2022-08-09T09:36:51.179Z,2.80
2022-08-09T09:38:01.581Z,2.90
2022-08-09T09:39:10.298Z,2.30
2022-08-09T09:40:17.987Z,2.30
2022-08-09T09:41:33.043Z,2.60
2022-08-09T09:42:57.686Z,2.80
2022-08-09T09:44:12.221Z,2.40
2022-08-09T09:45:26.444Z,2.80
2022-08-09T09:46:43.310Z,2.50
2022-08-09T09:47:58.465Z,2.40
2022-08-09T09:49:11.595Z,2.70
2022-08-09T09:50:23.625Z,2.80
2022-08-09T09:51:38.593Z,2.60
2022-08-09T09:52:56.727Z,2.60
2022-08-09T09:54:20.412Z,2.70
2022-08-09T09:55:32.819Z,2.90
2022-08-09T09:58:00.086Z,2.40
2022-08-09T09:58:16.878Z,2.40
2022-08-09T09:59:35.998Z,2.80
2022-08-09T10:00:58.772Z,2.50
2022-08-09T10:02:07.942Z,3.30
2022-08-09T10:03:15.045Z,2.80
2022-08-09T10:04:30.895Z,3.60
2022-08-09T10:06:03.522Z,2.60
2022-08-09T10:07:10.066Z,2.60
2022-08-09T10:08:27.211Z,3.10
2022-08-09T10:09:54.833Z,2.60
2022-08-09T10:11:06.956Z,2.70
2022-08-09T10:12:32.186Z,3.10
2022-08-09T10:13:45.180Z,2.90
2022-08-09T10:14:52.674Z,3.10
2022-08-09T10:16:55.767Z,3.40
2022-08-09T10:17:50.895Z,2.90
2022-08-09T10:18:56.337Z,2.90
2022-08-09T10:20:27.068Z,3.00
2022-08-09T10:21:48.748Z,3.30
2022-08-09T10:23:01.835Z,2.90
2022-08-09T10:24:09.135Z,2.70
2022-08-09T10:25:24.645Z,2.60
2022-08-09T10:26:42.664Z,2.90
2022-08-09T10:27:57.975Z,2.90
2022-08-09T10:29:21.325Z,3.20
2022-08-09T10:34:05.236Z,3.10
2022-08-09T10:34:57.477Z,2.90
2022-08-09T10:36:11.571Z,2.50
2022-08-09T10:37:20.724Z,2.70
2022-08-09T10:38:55.523Z,2.70
2022-08-09T10:39:57.520Z,2.60
2022-08-09T10:41:06.011Z,2.80
2022-08-09T10:42:17.348Z,3.00
2022-08-09T10:43:25.834Z,2.60
2022-08-09T10:44:46.765Z,3.10
2022-08-09T10:45:59.889Z,3.10
2022-08-09T10:48:16.571Z,3.00
2022-08-09T10:49:12.396Z,2.90
2022-08-09T10:50:30.854Z,3.20
2022-08-09T10:52:07.276Z,2.40
2022-08-09T10:53:32.024Z,2.70
2022-08-09T10:54:45.374Z,3.00
2022-08-09T10:55:58.340Z,3.20
2022-08-09T10:57:09.344Z,3.20
2022-08-09T10:58:37.035Z,3.00
2022-08-09T10:59:57.928Z,2.80
2022-08-09T11:03:06.439Z,2.90
2022-08-09T11:03:13.388Z,3.30
2022-08-09T11:04:31.712Z,3.00
2022-08-09T11:05:40.529Z,3.20
2022-08-09T11:07:08.179Z,3.30
2022-08-09T11:08:47.954Z,3.10
2022-08-09T11:09:59.672Z,3.40
2022-08-09T11:11:08.714Z,3.10
2022-08-09T11:12:17.833Z,2.90
2022-08-09T11:13:51.380Z,3.70
2022-08-09T11:14:58.649Z,3.10
2022-08-09T11:16:35.610Z,2.90
2022-08-09T11:17:46.940Z,3.00
2022-08-09T11:19:02.143Z,3.30
2022-08-09T11:20:22.175Z,3.10
2022-08-09T11:21:54.986Z,3.20
2022-08-09T11:23:12.364Z,3.40
2022-08-09T11:24:21.236Z,2.90
2022-08-09T11:25:45.312Z,3.30
2022-08-09T11:26:55.176Z,3.10
2022-08-09T11:28:05.122Z,3.10
2022-08-09T11:30:05.942Z,3.10
2022-08-09T11:31:48.789Z,3.50
2022-08-09T11:33:04.804Z,3.70
2022-08-09T11:34:29.786Z,3.20
2022-08-09T11:35:57.656Z,3.10
2022-08-09T11:37:07.180Z,2.90
2022-08-09T11:38:21.958Z,3.00
2022-08-09T11:39:38.111Z,2.70
2022-08-09T11:40:46.425Z,3.20
2022-08-09T11:41:58.570Z,3.00
2022-08-09T11:43:06.706Z,2.70
2022-08-09T11:44:13.823Z,3.00
2022-08-09T11:45:37.895Z,2.80
2022-08-09T11:46:56.433Z,3.20
2022-08-09T11:48:31.828Z,3.10
2022-08-09T11:50:53.815Z,2.50
2022-08-09T11:53:03.729Z,3.00
2022-08-09T11:53:21.170Z,2.90
2022-08-09T11:54:34.878Z,2.90
2022-08-09T11:55:53.526Z,2.80
2022-08-09T11:57:47.802Z,2.90
2022-08-09T11:59:10.506Z,3.60
2022-08-09T12:00:22.804Z,2.80
2022-08-09T12:02:17.753Z,3.30
2022-08-09T12:03:31.827Z,3.40
2022-08-09T12:04:37.840Z,3.00
2022-08-09T12:05:47.167Z,3.30
2022-08-09T12:06:57.846Z,3.20
2022-08-09T12:08:12.520Z,3.30
2022-08-09T12:09:34.007Z,3.10
2022-08-09T12:10:53.773Z,3.20
2022-08-09T12:12:12.048Z,3.10
2022-08-09T12:14:07.308Z,3.40
2022-08-09T12:15:49.695Z,3.10
2022-08-09T12:16:56.363Z,3.50
2022-08-09T12:18:07.044Z,3.10
2022-08-09T12:19:18.919Z,3.10
2022-08-09T12:20:29.035Z,3.60
2022-08-09T12:21:50.611Z,3.10
2022-08-09T12:23:01.348Z,3.10
2022-08-09T12:24:10.375Z,3.10
2022-08-09T12:25:34.732Z,2.70
2022-08-09T12:28:59.288Z,2.60
2022-08-09T12:29:11.738Z,2.90
2022-08-09T12:30:01.885Z,3.40
2022-08-09T12:31:58.805Z,2.80
2022-08-09T12:33:04.305Z,3.00
2022-08-09T12:34:11.913Z,3.10
2022-08-09T12:35:21.889Z,3.10
2022-08-09T12:36:34.057Z,3.00
2022-08-09T12:37:51.625Z,3.20
2022-08-09T12:39:02.269Z,3.10
2022-08-09T12:40:11.873Z,3.70
2022-08-09T12:41:26.424Z,3.50
2022-08-09T12:42:35.114Z,3.60
2022-08-09T12:44:06.555Z,3.50
2022-08-09T12:45:32.271Z,2.70
2022-08-09T12:46:48.810Z,3.60
2022-08-09T12:47:58.404Z,3.20
2022-08-09T12:49:06.400Z,3.20
2022-08-09T12:50:23.433Z,3.40
2022-08-09T12:52:00.345Z,3.30
2022-08-09T12:53:17.646Z,3.10
2022-08-09T12:54:27.549Z,3.10
2022-08-09T12:56:16.042Z,3.40
2022-08-09T12:57:02.660Z,3.30
2022-08-09T12:58:27.511Z,3.00
2022-08-09T12:59:39.976Z,3.10
2022-08-09T13:01:05.492Z,3.10
2022-08-09T13:02:15.160Z,3.20
2022-08-09T13:03:53.221Z,3.40
2022-08-09T13:05:04.045Z,3.00
2022-08-09T13:06:16.056Z,3.20
2022-08-09T13:07:50.221Z,3.50
2022-08-09T13:09:06.033Z,3.10
2022-08-09T13:10:14.538Z,3.20
2022-08-09T13:11:34.757Z,3.30
2022-08-09T13:13:09.455Z,3.60
2022-08-09T13:14:42.957Z,3.20
2022-08-09T13:15:59.665Z,3.60
2022-08-09T13:17:25.753Z,3.40
2022-08-09T13:18:47.091Z,3.10
2022-08-09T13:20:09.095Z,3.20
2022-08-09T13:22:35.952Z,3.20
2022-08-09T13:23:05.265Z,3.10
2022-08-09T13:24:53.792Z,3.20
2022-08-09T13:25:56.077Z,3.10
2022-08-09T13:27:04.683Z,3.10
2022-08-09T13:28:24.810Z,3.00
2022-08-09T13:30:04.092Z,3.10
2022-08-09T13:32:16.646Z,3.50
2022-08-09T13:32:48.560Z,4.20
2022-08-09T13:33:56.930Z,3.70
2022-08-09T13:35:04.027Z,3.50
2022-08-09T13:36:24.826Z,3.30
2022-08-09T13:37:52.392Z,3.40
2022-08-09T13:39:08.153Z,3.20
2022-08-09T13:41:50.974Z,3.70
2022-08-09T13:42:01.470Z,4.10
2022-08-09T13:43:09.884Z,3.50
2022-08-09T13:44:23.638Z,3.30
2022-08-09T13:45:32.159Z,3.10
2022-08-09T13:47:19.327Z,3.30
2022-08-09T13:48:25.653Z,3.40
2022-08-09T13:49:55.829Z,3.40
2022-08-09T13:51:04.742Z,3.40
2022-08-09T13:52:18.222Z,3.50
2022-08-09T13:53:38.805Z,3.10
2022-08-09T13:55:00.249Z,3.40
2022-08-09T13:56:12.842Z,3.40
2022-08-09T13:57:37.154Z,3.40
2022-08-09T13:58:48.721Z,3.40
2022-08-09T13:59:58.262Z,3.70
2022-08-09T14:01:06.755Z,3.70
2022-08-09T14:02:25.543Z,3.60
2022-08-09T14:04:03.810Z,3.70
2022-08-09T14:05:02.534Z,3.20
2022-08-09T14:06:25.705Z,3.60
2022-08-09T14:07:42.083Z,3.50
2022-08-09T14:08:51.192Z,3.30
2022-08-09T14:09:59.512Z,3.10
2022-08-09T14:11:16.367Z,3.80
2022-08-09T14:12:24.721Z,3.40
2022-08-09T14:14:22.003Z,3.30
2022-08-09T14:15:03.432Z,3.50
2022-08-09T14:16:29.201Z,3.50
2022-08-09T14:18:06.815Z,3.60
2022-08-09T14:19:06.016Z,3.70
2022-08-09T14:20:14.446Z,3.30
2022-08-09T14:21:25.742Z,3.50
2022-08-09T14:22:38.314Z,3.70
2022-08-09T14:23:54.477Z,3.30
2022-08-09T14:25:05.312Z,3.30
2022-08-09T14:26:18.261Z,3.80
2022-08-09T14:27:27.477Z,3.50
2022-08-09T14:28:42.964Z,3.30
2022-08-09T14:30:35.790Z,3.50
2022-08-09T14:31:23.670Z,3.30
2022-08-09T14:32:45.153Z,3.10
2022-08-09T14:33:54.756Z,3.40
2022-08-09T14:35:03.673Z,3.50
2022-08-09T14:36:20.543Z,3.10
2022-08-09T14:37:41.184Z,3.40
2022-08-09T14:38:59.282Z,3.50
2022-08-09T14:40:07.777Z,3.70
2022-08-09T14:41:34.873Z,3.50
2022-08-09T14:42:48.082Z,4.10
2022-08-09T14:43:56.242Z,3.50
2022-08-09T14:46:40.562Z,4.20
2022-08-09T14:46:58.660Z,4.00
2022-08-09T14:48:03.667Z,3.10
2022-08-09T14:49:12.642Z,3.40
2022-08-09T14:50:24.723Z,2.90
2022-08-09T14:51:42.503Z,3.90
2022-08-09T14:52:51.625Z,3.60
2022-08-09T14:54:00.856Z,3.70
2022-08-09T14:55:10.924Z,3.80
2022-08-09T14:56:17.770Z,3.30
2022-08-09T14:57:32.105Z,3.60
2022-08-09T14:58:56.312Z,3.70
2022-08-09T15:00:06.605Z,4.00
2022-08-09T15:01:15.354Z,4.00
2022-08-09T15:02:22.611Z,3.50
2022-08-09T15:03:30.713Z,3.90
2022-08-09T15:04:39.216Z,3.80
2022-08-09T15:05:52.446Z,4.00
2022-08-09T15:07:05.562Z,3.80
2022-08-09T15:08:19.005Z,4.90
2022-08-09T15:09:52.046Z,3.90
2022-08-09T15:11:00.979Z,4.60
2022-08-09T15:12:13.239Z,3.90
2022-08-09T15:13:20.354Z,3.80
2022-08-09T15:14:33.756Z,4.00
2022-08-09T15:15:43.819Z,4.10
2022-08-09T15:16:51.193Z,3.70
2022-08-09T15:17:58.833Z,3.90
2022-08-09T15:19:15.916Z,4.50
2022-08-09T15:21:55.043Z,3.90
2022-08-09T15:21:56.461Z,3.60
2022-08-09T15:24:01.797Z,4.30
2022-08-09T15:24:37.540Z,4.20
2022-08-09T15:25:45.627Z,4.00
2022-08-09T15:26:54.581Z,4.00
2022-08-09T15:28:26.140Z,4.30
2022-08-09T15:30:59.836Z,3.90
2022-08-09T15:31:09.959Z,4.10
2022-08-09T15:32:28.777Z,4.00
2022-08-09T15:34:32.768Z,4.10
2022-08-09T15:35:18.334Z,3.90
2022-08-09T15:36:34.034Z,3.90
2022-08-09T15:37:56.581Z,3.70
2022-08-09T15:39:09.717Z,3.90
2022-08-09T15:40:20.053Z,4.50
2022-08-09T15:41:32.062Z,4.10
2022-08-09T15:42:40.408Z,3.80
2022-08-09T15:43:50.945Z,3.50
2022-08-09T15:44:59.840Z,3.80
2022-08-09T15:46:33.227Z,3.40
2022-08-09T15:47:51.507Z,4.50
2022-08-09T15:49:21.767Z,3.90
2022-08-09T15:50:33.149Z,3.90
2022-08-09T15:52:02.320Z,3.50
2022-08-09T15:53:17.782Z,3.60
2022-08-09T15:54:44.651Z,3.20
2022-08-09T15:56:21.480Z,3.40
2022-08-09T15:57:34.103Z,3.60
2022-08-09T15:58:43.726Z,3.40
2022-08-09T15:59:51.680Z,3.10
2022-08-09T16:01:00.110Z,3.30
2022-08-09T16:02:07.554Z,3.30
2022-08-09T16:03:18.853Z,3.10
2022-08-09T16:04:36.738Z,3.10
2022-08-09T16:05:53.412Z,2.80
2022-08-09T16:07:02.166Z,2.90
2022-08-09T16:08:09.940Z,3.10
2022-08-09T16:09:51.350Z,3.20
2022-08-09T16:11:04.934Z,3.40
2022-08-09T16:12:15.749Z,3.00
2022-08-09T16:14:05.353Z,2.90
2022-08-09T16:14:51.307Z,2.80
2022-08-09T16:16:04.454Z,3.20
2022-08-09T16:17:19.641Z,2.40
2022-08-09T16:18:29.587Z,2.70
2022-08-09T16:19:48.866Z,2.60
2022-08-09T16:20:57.618Z,2.50
2022-08-09T16:22:05.714Z,2.60
2022-08-09T16:23:23.066Z,2.60
2022-08-09T16:24:33.387Z,2.50
2022-08-09T16:25:41.930Z,2.40
2022-08-09T16:27:00.502Z,2.50
2022-08-09T16:28:07.835Z,2.30
2022-08-09T16:29:20.469Z,2.50
2022-08-09T16:30:58.900Z,2.50
2022-08-09T16:32:19.578Z,2.30
2022-08-09T16:33:38.932Z,2.50
2022-08-09T16:34:56.710Z,2.40
2022-08-09T16:36:11.736Z,2.60
2022-08-09T16:37:53.751Z,2.40
2022-08-09T16:38:53.704Z,2.50
2022-08-09T16:40:05.204Z,2.60
2022-08-09T16:41:14.335Z,2.70
2022-08-09T16:42:24.921Z,3.10
2022-08-09T16:43:33.983Z,3.00
2022-08-09T16:44:48.177Z,2.40
2022-08-09T16:45:56.704Z,2.20
2022-08-09T16:48:36.882Z,2.50
2022-08-09T16:48:43.169Z,2.50
2022-08-09T16:50:29.367Z,2.60
2022-08-09T16:51:25.547Z,2.40
2022-08-09T16:52:33.079Z,2.80
2022-08-09T16:54:02.452Z,2.50
2022-08-09T16:55:08.259Z,2.80
2022-08-09T16:56:25.200Z,3.10
2022-08-09T16:58:08.997Z,2.60
2022-08-09T16:59:01.211Z,2.50
2022-08-09T17:00:15.346Z,2.80
2022-08-09T17:01:23.764Z,2.60